createdAt,value
2023-01-03T00:01:30.200Z,2.80
2023-01-03T00:03:57.940Z,2.80
2023-01-03T00:06:30.578Z,2.83
2023-01-03T00:08:59.612Z,2.86
2023-01-03T00:11:47.741Z,2.87
2023-01-03T00:14:18.026Z,2.87
2023-01-03T00:16:45.765Z,2.83
2023-01-03T00:19:14.815Z,2.87
2023-01-03T00:21:42.428Z,2.95
2023-01-03T00:24:09.765Z,2.99
2023-01-03T00:26:37.193Z,3.02
2023-01-03T00:29:04.365Z,3.04
2023-01-03T00:31:31.092Z,3.05
2023-01-03T00:33:57.570Z,3.10
2023-01-03T00:36:23.976Z,3.09
2023-01-03T00:38:50.466Z,3.12
2023-01-03T00:41:18.735Z,3.11
2023-01-03T00:43:49.306Z,3.14
2023-01-03T00:46:17.870Z,3.17
2023-01-03T00:48:44.564Z,3.21
2023-01-03T00:51:15.309Z,3.24
2023-01-03T00:53:43.484Z,3.26
2023-01-03T00:56:13.680Z,3.28
2023-01-03T00:58:40.965Z,3.28
2023-01-03T01:01:20.001Z,3.31
2023-01-03T01:03:50.135Z,3.36
2023-01-03T01:06:18.879Z,3.37
2023-01-03T01:08:46.291Z,3.39
2023-01-03T01:11:14.536Z,3.38
2023-01-03T01:13:42.063Z,3.41
2023-01-03T01:16:14.869Z,3.38
2023-01-03T01:18:43.440Z,3.34
2023-01-03T01:21:13.126Z,3.30
2023-01-03T01:23:41.318Z,3.23
2023-01-03T01:26:11.400Z,3.14
2023-01-03T01:28:37.947Z,3.10
2023-01-03T01:31:06.116Z,3.04
2023-01-03T01:33:34.977Z,3.00
2023-01-03T01:36:18.411Z,3.00
2023-01-03T01:38:47.151Z,2.98
2023-01-03T01:41:37.002Z,2.96
2023-01-03T01:44:22.347Z,2.96
2023-01-03T01:46:49.732Z,2.91
2023-01-03T01:49:23.234Z,2.86
2023-01-03T01:51:50.390Z,2.80
2023-01-03T01:54:18.141Z,2.71
2023-01-03T01:56:53.175Z,2.66
2023-01-03T01:59:21.408Z,2.59
2023-01-03T02:01:49.235Z,2.59
2023-01-03T02:04:25.598Z,2.54
2023-01-03T02:06:53.187Z,2.47
2023-01-03T02:09:19.689Z,2.45
2023-01-03T02:12:22.720Z,2.43
2023-01-03T02:15:25.387Z,2.39
2023-01-03T02:18:13.828Z,2.47
2023-01-03T02:21:07.639Z,2.57
2023-01-03T02:24:11.546Z,2.63
2023-01-03T02:27:11.022Z,2.72
2023-01-03T02:30:14.825Z,2.80
2023-01-03T02:32:53.299Z,2.87
2023-01-03T02:35:34.921Z,2.91
2023-01-03T02:38:13.126Z,2.92
2023-01-03T02:40:46.030Z,2.92
2023-01-03T02:43:52.072Z,2.96
2023-01-03T02:46:27.527Z,3.00
2023-01-03T02:49:20.383Z,3.08
2023-01-03T02:51:52.908Z,3.10
2023-01-03T02:54:25.704Z,3.15
2023-01-03T02:57:00.999Z,3.17
2023-01-03T02:59:39.216Z,3.20
2023-01-03T03:02:07.121Z,3.23
2023-01-03T03:04:36.748Z,3.26
2023-01-03T03:07:22.290Z,3.28
2023-01-03T03:10:08.461Z,3.31
2023-01-03T03:12:58.780Z,3.38
2023-01-03T03:15:33.284Z,3.41
2023-01-03T03:18:06.056Z,3.45
2023-01-03T03:20:51.253Z,3.48
2023-01-03T03:23:39.540Z,3.51
2023-01-03T03:26:16.400Z,3.55
2023-01-03T03:28:48.804Z,3.57
2023-01-03T03:31:35.335Z,3.63
2023-01-03T03:34:19.445Z,3.65
2023-01-03T03:36:54.814Z,3.66
2023-01-03T03:39:41.914Z,3.67
2023-01-03T03:42:47.901Z,3.71
2023-01-03T03:45:24.252Z,3.73
2023-01-03T03:47:56.847Z,3.74
2023-01-03T03:50:51.227Z,3.75
2023-01-03T03:53:23.626Z,3.77
2023-01-03T03:55:56.167Z,3.78
2023-01-03T03:58:38.610Z,3.81
2023-01-03T04:01:06.519Z,3.83
2023-01-03T04:03:34.407Z,3.84
2023-01-03T04:06:13.914Z,3.85
2023-01-03T04:08:40.404Z,3.82
2023-01-03T04:11:07.166Z,3.80
2023-01-03T04:13:36.510Z,3.79
2023-01-03T04:16:03.799Z,3.80
2023-01-03T04:18:30.394Z,3.80
2023-01-03T04:20:57.429Z,3.77
2023-01-03T04:23:24.479Z,3.75
2023-01-03T04:25:51.240Z,3.76
2023-01-03T04:28:18.330Z,3.74
2023-01-03T04:30:45.357Z,3.70
2023-01-03T04:33:11.848Z,3.69
2023-01-03T04:35:38.495Z,3.67
2023-01-03T04:38:05.864Z,3.65
2023-01-03T04:40:36.541Z,3.65
2023-01-03T04:43:21.768Z,3.65
2023-01-03T04:45:49.374Z,3.63
2023-01-03T04:48:17.872Z,3.67
2023-01-03T04:50:55.196Z,3.65
2023-01-03T04:53:22.896Z,3.62
2023-01-03T04:55:51.081Z,3.59
2023-01-03T04:58:17.921Z,3.60
2023-01-03T05:00:44.409Z,3.54
2023-01-03T05:03:11.243Z,3.52
2023-01-03T05:05:39.362Z,3.47
2023-01-03T05:08:10.567Z,3.42
2023-01-03T05:10:41.198Z,3.38
2023-01-03T05:13:08.524Z,3.37
2023-01-03T05:15:38.013Z,3.34
2023-01-03T05:18:05.433Z,3.34
2023-01-03T05:20:50.435Z,3.31
2023-01-03T05:23:37.281Z,3.31
2023-01-03T05:26:13.486Z,3.29
2023-01-03T05:28:41.778Z,3.31
2023-01-03T05:31:08.411Z,3.33
2023-01-03T05:33:40.526Z,3.33
2023-01-03T05:36:08.775Z,3.31
2023-01-03T05:38:36.831Z,3.28
2023-01-03T05:41:03.444Z,3.25
2023-01-03T05:43:29.988Z,3.22
2023-01-03T05:45:56.715Z,3.19
2023-01-03T05:48:23.272Z,3.12
2023-01-03T05:50:50.718Z,3.06
2023-01-03T05:53:18.059Z,2.98
2023-01-03T05:55:44.717Z,2.92
2023-01-03T05:58:12.710Z,2.86
2023-01-03T06:00:40.200Z,2.79
2023-01-03T06:03:07.144Z,2.74
2023-01-03T06:05:33.643Z,2.69
2023-01-03T06:08:02.345Z,2.66
2023-01-03T06:10:29.249Z,2.63
2023-01-03T06:12:56.051Z,2.60
2023-01-03T06:15:22.772Z,2.55
2023-01-03T06:17:54.927Z,2.48
2023-01-03T06:20:21.606Z,2.44
2023-01-03T06:22:48.088Z,2.38
2023-01-03T06:25:15.247Z,2.33
2023-01-03T06:27:41.762Z,2.31
2023-01-03T06:30:08.981Z,2.27
2023-01-03T06:32:36.556Z,2.28
2023-01-03T06:35:04.616Z,2.33
2023-01-03T06:37:31.285Z,2.40
2023-01-03T06:39:58.891Z,2.46
2023-01-03T06:42:42.478Z,2.46
2023-01-03T06:45:34.163Z,2.42
2023-01-03T06:48:24.179Z,2.36
2023-01-03T06:51:10.055Z,2.38
2023-01-03T06:53:39.327Z,2.41
2023-01-03T06:56:07.222Z,2.48
2023-01-03T06:58:34.373Z,2.50
2023-01-03T07:01:03.966Z,2.52
2023-01-03T07:03:32.090Z,2.52
2023-01-03T07:05:59.144Z,2.55
2023-01-03T07:08:25.624Z,2.55
2023-01-03T07:10:52.155Z,2.61
2023-01-03T07:13:37.374Z,2.66
2023-01-03T07:16:04.101Z,2.75
2023-01-03T07:18:31.851Z,2.80
2023-01-03T07:20:58.281Z,2.82
2023-01-03T07:23:24.876Z,2.81
2023-01-03T07:25:55.061Z,2.82
2023-01-03T07:28:21.555Z,2.88
2023-01-03T07:30:48.088Z,2.94
2023-01-03T07:33:16.895Z,2.95
2023-01-03T07:35:43.795Z,2.98
2023-01-03T07:38:11.910Z,2.97
2023-01-03T07:40:39.471Z,3.02
2023-01-03T07:43:25.562Z,3.05
2023-01-03T07:45:52.213Z,3.04
2023-01-03T07:48:18.727Z,3.01
2023-01-03T07:50:45.207Z,3.05
2023-01-03T07:53:16.614Z,3.05
2023-01-03T07:55:45.450Z,3.10
2023-01-03T07:58:12.437Z,3.17
2023-01-03T08:00:39.768Z,3.21
2023-01-03T08:03:10.758Z,3.29
2023-01-03T08:05:38.445Z,3.33
2023-01-03T08:08:05.644Z,3.36
2023-01-03T08:10:50.777Z,3.43
2023-01-03T08:13:20.095Z,3.46
2023-01-03T08:15:55.461Z,3.52
2023-01-03T08:18:25.009Z,3.57
2023-01-03T08:20:55.024Z,3.60
2023-01-03T08:23:22.420Z,3.63
2023-01-03T08:25:48.900Z,3.68
2023-01-03T08:28:16.115Z,3.73
2023-01-03T08:30:48.557Z,3.77
2023-01-03T08:33:17.291Z,3.82
2023-01-03T08:35:51.194Z,3.85
2023-01-03T08:38:32.757Z,3.88
2023-01-03T08:41:01.814Z,3.90
2023-01-03T08:43:32.234Z,3.95
2023-01-03T08:45:58.868Z,3.98
2023-01-03T08:48:25.539Z,4.01
2023-01-03T08:50:52.398Z,4.05
2023-01-03T08:53:18.886Z,4.07
2023-01-03T08:55:47.744Z,4.11
2023-01-03T08:58:14.211Z,4.14
2023-01-03T09:00:40.676Z,4.17
2023-01-03T09:03:07.624Z,4.21
2023-01-03T09:05:34.214Z,4.23
2023-01-03T09:08:00.706Z,4.28
2023-01-03T09:10:27.963Z,4.29
2023-01-03T09:12:57.956Z,4.30
2023-01-03T09:15:24.507Z,4.32
2023-01-03T09:17:51.032Z,4.33
2023-01-03T09:20:18.825Z,4.36
2023-01-03T09:22:45.394Z,4.41
2023-01-03T09:25:11.826Z,4.42
2023-01-03T09:27:38.279Z,4.45
2023-01-03T09:30:05.248Z,4.48
2023-01-03T09:32:31.759Z,4.51
2023-01-03T09:34:58.241Z,4.53
2023-01-03T09:37:24.793Z,4.56
2023-01-03T09:39:51.303Z,4.61
2023-01-03T09:42:40.921Z,4.62
2023-01-03T09:45:19.862Z,4.69
2023-01-03T09:47:46.463Z,4.72
2023-01-03T09:50:39.459Z,4.77
2023-01-03T09:53:41.763Z,4.80
2023-01-03T09:56:31.168Z,4.87
2023-01-03T09:59:28.570Z,4.88
2023-01-03T10:02:51.617Z,4.93
2023-01-03T10:05:24.218Z,4.94
2023-01-03T10:08:20.355Z,4.96
2023-01-03T10:11:17.899Z,4.97
2023-01-03T10:14:04.898Z,5.01
2023-01-03T10:16:54.543Z,5.04
2023-01-03T10:19:23.947Z,5.07
2023-01-03T10:22:10.440Z,5.10
2023-01-03T10:24:46.307Z,5.13
2023-01-03T10:27:22.383Z,5.18
2023-01-03T10:29:54.073Z,5.23
2023-01-03T10:32:42.287Z,5.26
2023-01-03T10:35:25.574Z,5.29
2023-01-03T10:37:54.272Z,5.32
2023-01-03T10:40:31.210Z,5.36
2023-01-03T10:42:57.737Z,5.40
2023-01-03T10:45:24.228Z,5.44
2023-01-03T10:48:01.871Z,5.44
2023-01-03T10:50:29.705Z,5.47
2023-01-03T10:53:05.745Z,5.50
2023-01-03T10:55:34.690Z,5.53
2023-01-03T10:58:03.810Z,5.56
2023-01-03T11:00:36.303Z,5.59
2023-01-03T11:03:23.100Z,5.61
2023-01-03T11:06:08.441Z,5.62
2023-01-03T11:08:44.599Z,5.62
2023-01-03T11:11:34.530Z,5.65
2023-01-03T11:14:09.797Z,5.65
2023-01-03T11:16:36.441Z,5.66
2023-01-03T11:19:05.633Z,5.70
2023-01-03T11:21:44.873Z,5.74
2023-01-03T11:24:33.394Z,5.78
2023-01-03T11:27:06.567Z,5.86
2023-01-03T11:29:38.736Z,5.93
2023-01-03T11:32:41.697Z,6.00
2023-01-03T11:35:45.606Z,6.06
2023-01-03T11:38:38.273Z,6.13
2023-01-03T11:41:12.167Z,6.17
2023-01-03T11:43:47.618Z,6.18
2023-01-03T11:46:23.850Z,6.19
2023-01-03T11:48:59.560Z,6.17
2023-01-03T11:51:36.321Z,6.20
2023-01-03T11:54:28.213Z,6.22
2023-01-03T11:57:00.218Z,6.29
2023-01-03T11:59:36.540Z,6.30
2023-01-03T12:02:27.996Z,6.33
2023-01-03T12:05:26.923Z,6.34
2023-01-03T12:08:14.057Z,6.35
2023-01-03T12:11:08.534Z,6.36
2023-01-03T12:13:43.925Z,6.40
2023-01-03T12:16:23.323Z,6.44
2023-01-03T12:19:17.521Z,6.46
2023-01-03T12:22:14.951Z,6.48
2023-01-03T12:25:06.523Z,6.51
2023-01-03T12:27:38.499Z,6.53
2023-01-03T12:30:37.737Z,6.54
2023-01-03T12:33:26.386Z,6.53
2023-01-03T12:36:04.110Z,6.52
2023-01-03T12:38:44.785Z,6.54
2023-01-03T12:41:28.095Z,6.55
2023-01-03T12:43:59.822Z,6.59
2023-01-03T12:46:33.368Z,6.65
2023-01-03T12:49:14.837Z,6.68
2023-01-03T12:51:44.335Z,6.73
2023-01-03T12:54:19.873Z,6.76
2023-01-03T12:57:12.654Z,6.78
2023-01-03T12:59:53.512Z,6.81
2023-01-03T13:02:33.645Z,6.80
2023-01-03T13:05:28.256Z,6.80
2023-01-03T13:08:19.449Z,6.77
2023-01-03T13:10:50.327Z,6.77
2023-01-03T13:13:19.385Z,6.79
2023-01-03T13:15:47.826Z,6.79
2023-01-03T13:18:35.572Z,6.81
2023-01-03T13:21:41.538Z,6.83
2023-01-03T13:24:08.530Z,6.85
2023-01-03T13:26:35.070Z,6.87
2023-01-03T13:29:36.000Z,6.88
2023-01-03T13:32:15.833Z,6.89
2023-01-03T13:34:42.480Z,6.92
2023-01-03T13:37:09.044Z,6.95
2023-01-03T13:39:46.555Z,6.96
2023-01-03T13:42:37.813Z,6.99
2023-01-03T13:45:17.754Z,7.02
2023-01-03T13:47:50.009Z,7.04
2023-01-03T13:50:28.235Z,7.07
2023-01-03T13:53:02.333Z,7.08
2023-01-03T13:55:52.719Z,7.09
2023-01-03T13:58:24.615Z,7.13
2023-01-03T14:00:54.330Z,7.19
2023-01-03T14:03:30.627Z,7.21
2023-01-03T14:06:21.801Z,7.24
2023-01-03T14:09:06.524Z,7.22
2023-01-03T14:11:56.176Z,7.20
2023-01-03T14:14:27.585Z,7.16
2023-01-03T14:16:57.771Z,7.09
2023-01-03T14:19:30.243Z,7.06
2023-01-03T14:22:28.745Z,7.02
2023-01-03T14:24:58.118Z,6.99
2023-01-03T14:27:35.369Z,6.95
2023-01-03T14:30:01.938Z,6.93
2023-01-03T14:32:34.750Z,6.92
2023-01-03T14:35:02.182Z,6.91
2023-01-03T14:37:28.720Z,6.89
2023-01-03T14:40:04.771Z,6.84
2023-01-03T14:42:31.417Z,6.82
2023-01-03T14:45:00.217Z,6.84
2023-01-03T14:47:37.950Z,6.85
2023-01-03T14:50:07.043Z,6.83
2023-01-03T14:52:40.808Z,6.81
2023-01-03T14:55:14.281Z,6.82
2023-01-03T14:57:42.156Z,6.79
2023-01-03T15:00:17.078Z,6.76
2023-01-03T15:02:44.767Z,6.69
2023-01-03T15:05:33.236Z,6.63
2023-01-03T15:08:14.674Z,6.58
2023-01-03T15:11:00.207Z,6.53
2023-01-03T15:13:35.499Z,6.48
2023-01-03T15:16:07.866Z,6.44
2023-01-03T15:18:39.763Z,6.42
2023-01-03T15:21:06.787Z,6.37
2023-01-03T15:23:38.269Z,6.34
2023-01-03T15:26:07.431Z,6.32
2023-01-03T15:28:48.732Z,6.30
2023-01-03T15:31:28.840Z,6.32
2023-01-03T15:34:17.275Z,6.32
2023-01-03T15:37:05.752Z,6.31
2023-01-03T15:39:43.142Z,6.34
2023-01-03T15:42:46.666Z,6.36
2023-01-03T15:45:27.985Z,6.40
2023-01-03T15:48:00.325Z,6.44
2023-01-03T15:50:56.245Z,6.45
2023-01-03T15:53:27.234Z,6.43
2023-01-03T15:56:01.523Z,6.39
2023-01-03T15:58:29.273Z,6.33
2023-01-03T16:00:56.496Z,6.27
2023-01-03T16:03:24.534Z,6.26
2023-01-03T16:05:51.431Z,6.26
2023-01-03T16:08:32.937Z,6.23
2023-01-03T16:11:02.920Z,6.20
2023-01-03T16:13:40.287Z,6.21
2023-01-03T16:16:08.148Z,6.19
2023-01-03T16:18:39.111Z,6.20
2023-01-03T16:21:06.224Z,6.21
2023-01-03T16:23:34.670Z,6.23
2023-01-03T16:26:01.495Z,6.24
2023-01-03T16:28:28.282Z,6.23
2023-01-03T16:31:19.870Z,6.25
2023-01-03T16:33:48.968Z,6.24
2023-01-03T16:36:24.493Z,6.25
2023-01-03T16:38:51.094Z,6.29
2023-01-03T16:41:17.516Z,6.30
2023-01-03T16:43:44.320Z,6.32
2023-01-03T16:46:11.964Z,6.32
2023-01-03T16:48:42.914Z,6.31
2023-01-03T16:51:18.417Z,6.31
2023-01-03T16:53:47.818Z,6.32
2023-01-03T16:56:14.465Z,6.34
2023-01-03T16:58:40.901Z,6.34
2023-01-03T17:01:07.668Z,6.32
2023-01-03T17:03:41.270Z,6.32
2023-01-03T17:06:37.080Z,6.33
2023-01-03T17:09:11.304Z,6.34
2023-01-03T17:11:42.207Z,6.38
2023-01-03T17:14:16.834Z,6.38
2023-01-03T17:16:43.572Z,6.40
2023-01-03T17:19:52.257Z,6.41
2023-01-03T17:22:04.527Z,6.43
2023-01-03T17:24:31.016Z,6.42
2023-01-03T17:27:32.939Z,6.44
2023-01-03T17:30:06.775Z,6.45
2023-01-03T17:32:36.472Z,6.49
2023-01-03T17:35:05.078Z,6.51
2023-01-03T17:37:45.471Z,6.54
2023-01-03T17:40:27.673Z,6.54
2023-01-03T17:42:58.902Z,6.56
2023-01-03T17:45:44.052Z,6.55
2023-01-03T17:48:32.541Z,6.58
2023-01-03T17:50:59.409Z,6.59
2023-01-03T17:53:26.162Z,6.58
2023-01-03T17:55:52.823Z,6.61
2023-01-03T17:58:31.940Z,6.63
2023-01-03T18:00:58.950Z,6.62
2023-01-03T18:03:25.989Z,6.62
2023-01-03T18:05:54.365Z,6.65
2023-01-03T18:08:23.252Z,6.66
2023-01-03T18:10:53.359Z,6.64
2023-01-03T18:13:28.110Z,6.65
2023-01-03T18:15:55.395Z,6.67
2023-01-03T18:18:24.471Z,6.65
2023-01-03T18:20:51.888Z,6.68
2023-01-03T18:23:24.020Z,6.68
2023-01-03T18:25:51.662Z,6.70
2023-01-03T18:28:23.233Z,6.69
2023-01-03T18:30:49.675Z,6.69
2023-01-03T18:33:16.207Z,6.68
2023-01-03T18:35:43.616Z,6.69
2023-01-03T18:38:29.577Z,6.71
2023-01-03T18:41:02.588Z,6.73
2023-01-03T18:43:31.894Z,6.71
2023-01-03T18:45:58.445Z,6.75
2023-01-03T18:48:24.975Z,6.74
2023-01-03T18:50:58.385Z,6.73
2023-01-03T18:53:28.463Z,6.72
2023-01-03T18:55:55.303Z,6.73
2023-01-03T18:58:35.471Z,6.76
2023-01-03T19:01:02.540Z,6.80
2023-01-03T19:03:31.819Z,6.81
2023-01-03T19:06:00.194Z,6.85
2023-01-03T19:08:32.971Z,6.86
2023-01-03T19:11:07.459Z,6.85
2023-01-03T19:13:50.107Z,6.88
2023-01-03T19:16:19.110Z,6.89
2023-01-03T19:18:46.111Z,6.89
2023-01-03T19:21:14.679Z,6.90
2023-01-03T19:23:43.081Z,6.92
2023-01-03T19:26:25.416Z,6.93
2023-01-03T19:28:56.285Z,6.95
2023-01-03T19:31:39.590Z,6.96
2023-01-03T19:34:23.126Z,6.97
2023-01-03T19:36:50.376Z,6.94
2023-01-03T19:39:24.047Z,6.91
2023-01-03T19:42:14.508Z,6.91
2023-01-03T19:44:41.527Z,6.87
2023-01-03T19:47:19.929Z,6.91
2023-01-03T19:49:47.457Z,6.93
2023-01-03T19:52:14.871Z,6.94
2023-01-03T19:54:41.451Z,6.93
2023-01-03T19:57:30.129Z,6.91
2023-01-03T20:00:00.266Z,6.88
2023-01-03T20:02:35.572Z,6.89
2023-01-03T20:05:02.458Z,6.86
2023-01-03T20:07:29.068Z,6.82
2023-01-03T20:09:55.559Z,6.81
2023-01-03T20:12:25.920Z,6.78
2023-01-03T20:14:55.026Z,6.77
2023-01-03T20:17:24.868Z,6.78
2023-01-03T20:19:52.011Z,6.79
2023-01-03T20:22:53.591Z,6.78
2023-01-03T20:25:23.406Z,6.76
2023-01-03T20:27:50.604Z,6.79
2023-01-03T20:30:19.212Z,6.79
2023-01-03T20:32:45.890Z,6.80
2023-01-03T20:35:55.931Z,6.79
2023-01-03T20:38:02.426Z,6.79
2023-01-03T20:40:30.128Z,6.87
2023-01-03T20:42:58.524Z,6.88
2023-01-03T20:45:25.962Z,6.89
2023-01-03T20:47:54.298Z,6.90
2023-01-03T20:50:26.890Z,6.91
2023-01-03T20:52:54.683Z,6.93
2023-01-03T20:55:24.427Z,6.90
2023-01-03T20:57:54.864Z,6.91
2023-01-03T21:00:29.800Z,6.93
2023-01-03T21:07:27.599Z,6.94
2023-01-03T21:09:59.616Z,6.93
2023-01-03T21:13:07.762Z,6.97
2023-01-03T21:15:35.164Z,6.96
2023-01-03T21:18:03.054Z,6.97
2023-01-03T21:24:25.310Z,7.03
2023-01-03T21:27:32.226Z,7.04
2023-01-03T21:29:59.169Z,7.03
2023-01-03T21:32:27.424Z,7.00
2023-01-03T21:34:53.908Z,7.01
2023-01-03T21:37:20.550Z,7.03
2023-01-03T21:39:47.261Z,7.04
2023-01-03T21:42:33.049Z,7.04
2023-01-03T21:44:59.608Z,7.04
2023-01-03T21:47:26.343Z,7.03
2023-01-03T21:49:52.972Z,7.03
2023-01-03T21:52:22.021Z,7.04
2023-01-03T21:54:50.802Z,7.06
2023-01-03T21:57:22.913Z,7.07
2023-01-03T21:59:49.965Z,7.09
2023-01-03T22:02:35.179Z,7.14
2023-01-03T22:05:01.817Z,7.17
2023-01-03T22:07:28.271Z,7.17
2023-01-03T22:10:13.209Z,7.18
2023-01-03T22:12:39.856Z,7.23
2023-01-03T22:15:06.946Z,7.26
2023-01-03T22:17:45.285Z,7.30
2023-01-03T22:20:15.473Z,7.34
2023-01-03T22:22:43.685Z,7.39
2023-01-03T22:25:13.109Z,7.42
2023-01-03T22:27:39.772Z,7.45
2023-01-03T22:30:08.934Z,7.45
2023-01-03T22:32:35.843Z,7.44
2023-01-03T22:35:02.512Z,7.44
2023-01-03T22:37:29.716Z,7.46
2023-01-03T22:40:05.634Z,7.47
2023-01-03T22:42:33.181Z,7.49
2023-01-03T22:45:00.674Z,7.50
2023-01-03T22:47:28.874Z,7.50
2023-01-03T22:49:56.411Z,7.53
2023-01-03T22:52:25.193Z,7.57
2023-01-03T23:00:51.865Z,7.64
2023-01-03T23:03:18.378Z,7.62
2023-01-03T23:05:44.950Z,7.62
2023-01-03T23:08:11.681Z,7.63
2023-01-03T23:10:39.609Z,7.61
2023-01-03T23:13:15.367Z,7.62
2023-01-03T23:15:42.043Z,7.62
2023-01-03T23:18:08.535Z,7.61
2023-01-03T23:20:36.271Z,7.57
2023-01-03T23:23:02.976Z,7.55
2023-01-03T23:25:35.425Z,7.55
2023-01-03T23:28:01.947Z,7.55
2023-01-03T23:30:28.547Z,7.54
2023-01-03T23:32:56.147Z,7.52
2023-01-03T23:35:22.722Z,7.51
2023-01-03T23:37:49.903Z,7.50
2023-01-03T23:40:17.368Z,7.48
2023-01-03T23:42:43.995Z,7.48
2023-01-03T23:45:10.632Z,7.49
2023-01-03T23:47:37.089Z,7.48
2023-01-03T23:50:03.885Z,7.50
2023-01-03T23:52:32.536Z,7.50
2023-01-03T23:55:03.626Z,7.49
2023-01-03T23:57:33.573Z,7.50
